sensor_id;sensor_type;location;lat;lon;timestamp;temperature;humidity
17891;DHT22;9071;48.220;14.480;2023-05-19T00:05:00;10.00;99.90
17891;DHT22;9071;48.220;14.480;2023-05-19T00:10:03;10.00;99.90
17891;DHT22;9071;48.220;14.480;2023-05-19T00:15:08;10.00;99.90
17891;DHT22;9071;48.220;14.480;2023-05-19T00:20:12;10.10;99.90
17891;DHT22;9071;48.220;14.480;2023-05-19T00:25:14;10.00;99.90
17891;DHT22;9071;48.220;14.480;2023-05-19T00:30:17;10.00;99.90
17891;DHT22;9071;48.220;14.480;2023-05-19T00:35:19;10.00;99.90
17891;DHT22;9071;48.220;14.480;2023-05-19T00:40:22;10.00;99.90
17891;DHT22;9071;48.220;14.480;2023-05-19T00:45:26;10.00;99.90
17891;DHT22;9071;48.220;14.480;2023-05-19T00:50:28;10.00;99.90
17891;DHT22;9071;48.220;14.480;2023-05-19T00:55:32;10.00;99.90
17891;DHT22;9071;48.220;14.480;2023-05-19T01:00:37;9.90;99.90
17891;DHT22;9071;48.220;14.480;2023-05-19T01:05:40;9.90;99.90
17891;DHT22;9071;48.220;14.480;2023-05-19T01:10:44;9.90;99.90
17891;DHT22;9071;48.220;14.480;2023-05-19T01:15:57;9.80;99.90
17891;DHT22;9071;48.220;14.480;2023-05-19T01:21:11;9.80;99.90
17891;DHT22;9071;48.220;14.480;2023-05-19T01:26:40;9.90;99.90
17891;DHT22;9071;48.220;14.480;2023-05-19T01:31:45;9.80;99.90
17891;DHT22;9071;48.220;14.480;2023-05-19T01:36:50;9.90;99.90
17891;DHT22;9071;48.220;14.480;2023-05-19T01:41:55;9.90;99.90
17891;DHT22;9071;48.220;14.480;2023-05-19T01:47:00;9.90;99.90
17891;DHT22;9071;48.220;14.480;2023-05-19T01:52:02;9.90;99.90
17891;DHT22;9071;48.220;14.480;2023-05-19T01:57:14;9.90;99.90
17891;DHT22;9071;48.220;14.480;2023-05-19T02:02:25;9.90;99.90
17891;DHT22;9071;48.220;14.480;2023-05-19T02:07:34;9.90;99.90
17891;DHT22;9071;48.220;14.480;2023-05-19T02:12:39;9.90;99.90
17891;DHT22;9071;48.220;14.480;2023-05-19T02:17:43;9.90;99.90
17891;DHT22;9071;48.220;14.480;2023-05-19T02:22:47;9.90;99.90
17891;DHT22;9071;48.220;14.480;2023-05-19T02:27:50;9.90;99.90
17891;DHT22;9071;48.220;14.480;2023-05-19T02:32:54;9.90;99.90
17891;DHT22;9071;48.220;14.480;2023-05-19T02:37:56;9.90;99.90
17891;DHT22;9071;48.220;14.480;2023-05-19T02:42:58;10.00;99.90
17891;DHT22;9071;48.220;14.480;2023-05-19T02:48:03;10.00;99.90
17891;DHT22;9071;48.220;14.480;2023-05-19T02:53:05;10.10;99.90
17891;DHT22;9071;48.220;14.480;2023-05-19T02:58:07;10.10;99.90
17891;DHT22;9071;48.220;14.480;2023-05-19T03:03:10;10.10;99.90
17891;DHT22;9071;48.220;14.480;2023-05-19T03:08:13;10.10;99.90
17891;DHT22;9071;48.220;14.480;2023-05-19T03:13:15;10.00;99.90
17891;DHT22;9071;48.220;14.480;2023-05-19T03:18:18;10.10;99.90
17891;DHT22;9071;48.220;14.480;2023-05-19T03:23:21;10.10;99.90
17891;DHT22;9071;48.220;14.480;2023-05-19T03:28:23;10.10;99.90
17891;DHT22;9071;48.220;14.480;2023-05-19T03:33:28;10.20;99.90
17891;DHT22;9071;48.220;14.480;2023-05-19T03:38:30;10.20;99.90
17891;DHT22;9071;48.220;14.480;2023-05-19T03:43:32;10.10;99.90
17891;DHT22;9071;48.220;14.480;2023-05-19T03:48:35;10.10;99.90
17891;DHT22;9071;48.220;14.480;2023-05-19T03:53:37;10.10;99.90
17891;DHT22;9071;48.220;14.480;2023-05-19T03:58:40;10.10;99.90
17891;DHT22;9071;48.220;14.480;2023-05-19T04:03:45;10.20;99.90
17891;DHT22;9071;48.220;14.480;2023-05-19T04:08:47;10.20;99.90
17891;DHT22;9071;48.220;14.480;2023-05-19T04:13:49;10.30;99.90
17891;DHT22;9071;48.220;14.480;2023-05-19T04:18:52;10.30;99.90
17891;DHT22;9071;48.220;14.480;2023-05-19T04:23:54;10.40;99.90
17891;DHT22;9071;48.220;14.480;2023-05-19T04:28:57;10.50;99.90
17891;DHT22;9071;48.220;14.480;2023-05-19T04:34:01;10.50;99.90
17891;DHT22;9071;48.220;14.480;2023-05-19T04:39:03;10.60;99.90
17891;DHT22;9071;48.220;14.480;2023-05-19T04:44:07;10.60;99.90
17891;DHT22;9071;48.220;14.480;2023-05-19T04:49:11;10.70;99.90
17891;DHT22;9071;48.220;14.480;2023-05-19T04:54:13;10.70;99.90
17891;DHT22;9071;48.220;14.480;2023-05-19T04:59:15;10.80;99.90
17891;DHT22;9071;48.220;14.480;2023-05-19T05:04:19;10.80;99.90
17891;DHT22;9071;48.220;14.480;2023-05-19T05:09:21;10.80;99.90
17891;DHT22;9071;48.220;14.480;2023-05-19T05:14:23;10.90;99.90
17891;DHT22;9071;48.220;14.480;2023-05-19T05:19:27;11.00;99.90
17891;DHT22;9071;48.220;14.480;2023-05-19T05:24:30;11.10;99.90
17891;DHT22;9071;48.220;14.480;2023-05-19T05:29:32;11.10;99.90
17891;DHT22;9071;48.220;14.480;2023-05-19T05:34:35;11.20;99.90
17891;DHT22;9071;48.220;14.480;2023-05-19T05:39:39;11.20;99.90
17891;DHT22;9071;48.220;14.480;2023-05-19T05:44:41;11.20;99.90
17891;DHT22;9071;48.220;14.480;2023-05-19T05:49:46;11.30;99.90
17891;DHT22;9071;48.220;14.480;2023-05-19T05:54:48;11.30;99.90
17891;DHT22;9071;48.220;14.480;2023-05-19T05:59:50;11.30;99.90
17891;DHT22;9071;48.220;14.480;2023-05-19T06:04:54;11.50;99.90
17891;DHT22;9071;48.220;14.480;2023-05-19T06:09:56;11.50;99.90
17891;DHT22;9071;48.220;14.480;2023-05-19T06:14:58;11.50;99.90
17891;DHT22;9071;48.220;14.480;2023-05-19T06:20:02;11.50;99.90
17891;DHT22;9071;48.220;14.480;2023-05-19T06:25:05;11.60;99.90
17891;DHT22;9071;48.220;14.480;2023-05-19T06:30:08;11.60;99.90
17891;DHT22;9071;48.220;14.480;2023-05-19T06:35:12;11.60;99.90
17891;DHT22;9071;48.220;14.480;2023-05-19T06:40:14;11.70;99.90
17891;DHT22;9071;48.220;14.480;2023-05-19T06:45:17;11.90;99.90
17891;DHT22;9071;48.220;14.480;2023-05-19T06:50:22;12.20;99.90
17891;DHT22;9071;48.220;14.480;2023-05-19T06:55:24;12.50;99.90
17891;DHT22;9071;48.220;14.480;2023-05-19T07:00:26;13.00;99.90
17891;DHT22;9071;48.220;14.480;2023-05-19T07:05:30;13.40;99.90
17891;DHT22;9071;48.220;14.480;2023-05-19T07:10:32;13.60;99.90
17891;DHT22;9071;48.220;14.480;2023-05-19T07:15:34;13.90;99.90
17891;DHT22;9071;48.220;14.480;2023-05-19T07:20:37;14.20;99.90
17891;DHT22;9071;48.220;14.480;2023-05-19T07:25:39;15.60;99.90
17891;DHT22;9071;48.220;14.480;2023-05-19T07:30:41;15.70;99.90
17891;DHT22;9071;48.220;14.480;2023-05-19T07:35:45;15.80;99.90
17891;DHT22;9071;48.220;14.480;2023-05-19T07:40:47;16.90;99.90
17891;DHT22;9071;48.220;14.480;2023-05-19T07:45:49;18.90;99.90
17891;DHT22;9071;48.220;14.480;2023-05-19T07:50:55;20.70;99.90
17891;DHT22;9071;48.220;14.480;2023-05-19T07:55:57;21.00;99.90
17891;DHT22;9071;48.220;14.480;2023-05-19T08:00:59;21.00;99.90
17891;DHT22;9071;48.220;14.480;2023-05-19T08:06:03;19.90;99.90
17891;DHT22;9071;48.220;14.480;2023-05-19T08:11:05;19.10;99.90
17891;DHT22;9071;48.220;14.480;2023-05-19T08:16:07;18.20;99.90
17891;DHT22;9071;48.220;14.480;2023-05-19T08:21:11;17.20;99.90
17891;DHT22;9071;48.220;14.480;2023-05-19T08:26:13;16.90;99.90
17891;DHT22;9071;48.220;14.480;2023-05-19T08:31:15;16.70;99.90
17891;DHT22;9071;48.220;14.480;2023-05-19T08:36:19;16.90;99.90
17891;DHT22;9071;48.220;14.480;2023-05-19T08:41:21;16.90;99.90
17891;DHT22;9071;48.220;14.480;2023-05-19T08:46:24;17.20;99.90
17891;DHT22;9071;48.220;14.480;2023-05-19T08:51:34;17.00;99.90
17891;DHT22;9071;48.220;14.480;2023-05-19T08:56:42;17.20;99.90
17891;DHT22;9071;48.220;14.480;2023-05-19T09:01:44;17.30;99.90
17891;DHT22;9071;48.220;14.480;2023-05-19T09:06:48;16.60;99.90
17891;DHT22;9071;48.220;14.480;2023-05-19T09:11:50;16.50;99.90
17891;DHT22;9071;48.220;14.480;2023-05-19T09:16:52;16.50;99.90
17891;DHT22;9071;48.220;14.480;2023-05-19T09:21:58;16.60;99.90
17891;DHT22;9071;48.220;14.480;2023-05-19T09:27:02;17.00;99.90
17891;DHT22;9071;48.220;14.480;2023-05-19T09:32:05;17.20;99.90
17891;DHT22;9071;48.220;14.480;2023-05-19T09:37:12;16.80;99.90
17891;DHT22;9071;48.220;14.480;2023-05-19T09:42:14;16.80;99.90
17891;DHT22;9071;48.220;14.480;2023-05-19T09:47:16;16.50;99.90
17891;DHT22;9071;48.220;14.480;2023-05-19T09:52:20;16.70;99.90
17891;DHT22;9071;48.220;14.480;2023-05-19T09:57:24;16.60;99.90
17891;DHT22;9071;48.220;14.480;2023-05-19T10:02:28;16.70;99.90
17891;DHT22;9071;48.220;14.480;2023-05-19T10:07:32;17.10;99.90
17891;DHT22;9071;48.220;14.480;2023-05-19T10:12:36;17.30;99.90
17891;DHT22;9071;48.220;14.480;2023-05-19T10:17:39;17.60;99.90
17891;DHT22;9071;48.220;14.480;2023-05-19T10:22:43;17.30;99.90
17891;DHT22;9071;48.220;14.480;2023-05-19T10:28:02;17.40;99.90
17891;DHT22;9071;48.220;14.480;2023-05-19T10:33:08;17.50;99.90
17891;DHT22;9071;48.220;14.480;2023-05-19T10:38:19;17.70;99.90
17891;DHT22;9071;48.220;14.480;2023-05-19T10:43:28;17.70;99.90
17891;DHT22;9071;48.220;14.480;2023-05-19T10:48:33;17.90;99.90
17891;DHT22;9071;48.220;14.480;2023-05-19T10:53:40;18.10;99.90
17891;DHT22;9071;48.220;14.480;2023-05-19T10:58:49;18.10;99.90
17891;DHT22;9071;48.220;14.480;2023-05-19T11:03:52;18.00;99.90
17891;DHT22;9071;48.220;14.480;2023-05-19T11:08:59;18.30;99.90
17891;DHT22;9071;48.220;14.480;2023-05-19T11:14:03;18.40;99.90
17891;DHT22;9071;48.220;14.480;2023-05-19T11:19:05;18.70;99.90
17891;DHT22;9071;48.220;14.480;2023-05-19T11:24:09;18.90;99.90
17891;DHT22;9071;48.220;14.480;2023-05-19T11:29:11;19.00;99.90
17891;DHT22;9071;48.220;14.480;2023-05-19T11:34:13;18.80;99.90
17891;DHT22;9071;48.220;14.480;2023-05-19T11:39:17;18.80;99.90
17891;DHT22;9071;48.220;14.480;2023-05-19T11:44:20;19.10;99.90
17891;DHT22;9071;48.220;14.480;2023-05-19T11:49:22;19.20;99.90
17891;DHT22;9071;48.220;14.480;2023-05-19T11:54:30;19.00;99.90
17891;DHT22;9071;48.220;14.480;2023-05-19T11:59:34;19.30;99.90
17891;DHT22;9071;48.220;14.480;2023-05-19T12:04:37;19.60;99.90
17891;DHT22;9071;48.220;14.480;2023-05-19T12:09:40;19.40;99.90
17891;DHT22;9071;48.220;14.480;2023-05-19T12:14:43;19.40;99.90
17891;DHT22;9071;48.220;14.480;2023-05-19T12:19:47;19.90;99.90
17891;DHT22;9071;48.220;14.480;2023-05-19T12:24:51;20.00;99.90
17891;DHT22;9071;48.220;14.480;2023-05-19T12:29:54;19.90;99.90
17891;DHT22;9071;48.220;14.480;2023-05-19T12:34:57;20.00;99.90
17891;DHT22;9071;48.220;14.480;2023-05-19T12:40:01;19.90;99.90
17891;DHT22;9071;48.220;14.480;2023-05-19T12:45:05;20.10;99.90
17891;DHT22;9071;48.220;14.480;2023-05-19T12:50:09;20.00;99.90
17891;DHT22;9071;48.220;14.480;2023-05-19T12:55:13;20.20;99.90
17891;DHT22;9071;48.220;14.480;2023-05-19T13:00:17;19.90;99.90
17891;DHT22;9071;48.220;14.480;2023-05-19T13:05:20;19.70;99.90
17891;DHT22;9071;48.220;14.480;2023-05-19T13:10:24;19.90;99.90
17891;DHT22;9071;48.220;14.480;2023-05-19T13:15:28;19.70;99.90
17891;DHT22;9071;48.220;14.480;2023-05-19T13:20:34;19.60;99.90
17891;DHT22;9071;48.220;14.480;2023-05-19T13:25:37;19.40;99.90
17891;DHT22;9071;48.220;14.480;2023-05-19T13:30:40;19.20;99.90
17891;DHT22;9071;48.220;14.480;2023-05-19T13:35:43;19.40;99.90
17891;DHT22;9071;48.220;14.480;2023-05-19T13:40:47;19.70;99.90
17891;DHT22;9071;48.220;14.480;2023-05-19T13:45:49;19.80;99.90
17891;DHT22;9071;48.220;14.480;2023-05-19T13:50:51;19.60;99.90
17891;DHT22;9071;48.220;14.480;2023-05-19T13:55:56;19.40;99.90
17891;DHT22;9071;48.220;14.480;2023-05-19T14:00:58;19.40;99.90
17891;DHT22;9071;48.220;14.480;2023-05-19T14:06:00;19.60;99.90
17891;DHT22;9071;48.220;14.480;2023-05-19T14:11:04;19.50;99.90
17891;DHT22;9071;48.220;14.480;2023-05-19T14:16:07;19.60;99.90
17891;DHT22;9071;48.220;14.480;2023-05-19T14:21:09;19.80;99.90
17891;DHT22;9071;48.220;14.480;2023-05-19T14:26:12;20.10;99.90
17891;DHT22;9071;48.220;14.480;2023-05-19T14:31:15;19.90;99.90
17891;DHT22;9071;48.220;14.480;2023-05-19T14:36:17;19.80;99.90
17891;DHT22;9071;48.220;14.480;2023-05-19T14:41:20;19.80;99.90
17891;DHT22;9071;48.220;14.480;2023-05-19T14:46:22;19.70;99.90
17891;DHT22;9071;48.220;14.480;2023-05-19T14:51:24;19.70;99.90
17891;DHT22;9071;48.220;14.480;2023-05-19T14:56:28;19.60;99.90
17891;DHT22;9071;48.220;14.480;2023-05-19T15:01:30;19.70;99.90
17891;DHT22;9071;48.220;14.480;2023-05-19T15:06:32;19.70;99.90
17891;DHT22;9071;48.220;14.480;2023-05-19T15:11:35;19.70;99.90
17891;DHT22;9071;48.220;14.480;2023-05-19T15:16:37;19.90;99.90
17891;DHT22;9071;48.220;14.480;2023-05-19T15:21:40;20.00;99.90
17891;DHT22;9071;48.220;14.480;2023-05-19T15:26:45;20.00;99.90
17891;DHT22;9071;48.220;14.480;2023-05-19T15:31:49;20.00;99.90
17891;DHT22;9071;48.220;14.480;2023-05-19T15:36:51;20.00;99.90
17891;DHT22;9071;48.220;14.480;2023-05-19T15:41:54;19.90;99.90
17891;DHT22;9071;48.220;14.480;2023-05-19T15:46:56;19.80;99.90
17891;DHT22;9071;48.220;14.480;2023-05-19T15:51:58;19.80;99.90
17891;DHT22;9071;48.220;14.480;2023-05-19T15:57:02;19.80;99.90
17891;DHT22;9071;48.220;14.480;2023-05-19T16:02:04;19.80;99.90
17891;DHT22;9071;48.220;14.480;2023-05-19T16:07:06;19.70;99.90
17891;DHT22;9071;48.220;14.480;2023-05-19T16:12:10;19.70;99.90
17891;DHT22;9071;48.220;14.480;2023-05-19T16:17:12;19.50;99.90
17891;DHT22;9071;48.220;14.480;2023-05-19T16:22:14;19.40;99.90
17891;DHT22;9071;48.220;14.480;2023-05-19T16:27:19;19.50;99.90
17891;DHT22;9071;48.220;14.480;2023-05-19T16:32:21;19.50;99.90
17891;DHT22;9071;48.220;14.480;2023-05-19T16:37:23;19.40;99.90
17891;DHT22;9071;48.220;14.480;2023-05-19T16:42:26;19.40;99.90
17891;DHT22;9071;48.220;14.480;2023-05-19T16:47:28;19.40;99.90
17891;DHT22;9071;48.220;14.480;2023-05-19T16:52:30;19.10;99.90
17891;DHT22;9071;48.220;14.480;2023-05-19T16:57:33;19.00;99.90
17891;DHT22;9071;48.220;14.480;2023-05-19T17:02:35;18.90;99.90
17891;DHT22;9071;48.220;14.480;2023-05-19T17:07:37;18.80;99.90
17891;DHT22;9071;48.220;14.480;2023-05-19T17:12:41;18.70;99.90
17891;DHT22;9071;48.220;14.480;2023-05-19T17:17:43;18.70;99.90
17891;DHT22;9071;48.220;14.480;2023-05-19T17:22:45;18.60;99.90
17891;DHT22;9071;48.220;14.480;2023-05-19T17:27:48;18.50;99.90
17891;DHT22;9071;48.220;14.480;2023-05-19T17:32:51;18.40;99.90
17891;DHT22;9071;48.220;14.480;2023-05-19T17:37:53;18.30;99.90
17891;DHT22;9071;48.220;14.480;2023-05-19T17:42:58;18.30;99.90
17891;DHT22;9071;48.220;14.480;2023-05-19T17:48:00;18.20;99.90
17891;DHT22;9071;48.220;14.480;2023-05-19T17:53:03;18.00;99.90
17891;DHT22;9071;48.220;14.480;2023-05-19T17:58:07;17.80;99.90
17891;DHT22;9071;48.220;14.480;2023-05-19T18:03:09;17.60;99.90
17891;DHT22;9071;48.220;14.480;2023-05-19T18:08:11;17.50;99.90
17891;DHT22;9071;48.220;14.480;2023-05-19T18:13:15;17.30;99.90
17891;DHT22;9071;48.220;14.480;2023-05-19T18:18:17;17.20;99.90
17891;DHT22;9071;48.220;14.480;2023-05-19T18:23:19;17.10;99.90
17891;DHT22;9071;48.220;14.480;2023-05-19T18:28:23;16.90;99.90
17891;DHT22;9071;48.220;14.480;2023-05-19T18:33:25;16.80;99.90
17891;DHT22;9071;48.220;14.480;2023-05-19T18:38:27;16.70;99.90
17891;DHT22;9071;48.220;14.480;2023-05-19T18:43:30;16.60;99.90
17891;DHT22;9071;48.220;14.480;2023-05-19T18:48:33;16.50;99.90
17891;DHT22;9071;48.220;14.480;2023-05-19T18:53:36;16.40;99.90
17891;DHT22;9071;48.220;14.480;2023-05-19T18:58:39;16.30;99.90
17891;DHT22;9071;48.220;14.480;2023-05-19T19:03:41;16.20;99.90
17891;DHT22;9071;48.220;14.480;2023-05-19T19:08:44;16.20;99.90
17891;DHT22;9071;48.220;14.480;2023-05-19T19:13:48;16.10;99.90
17891;DHT22;9071;48.220;14.480;2023-05-19T19:18:50;16.10;99.90
17891;DHT22;9071;48.220;14.480;2023-05-19T19:23:52;15.90;99.90
17891;DHT22;9071;48.220;14.480;2023-05-19T19:28:56;15.90;99.90
17891;DHT22;9071;48.220;14.480;2023-05-19T19:33:58;15.90;99.90
17891;DHT22;9071;48.220;14.480;2023-05-19T19:39:03;15.80;99.90
17891;DHT22;9071;48.220;14.480;2023-05-19T19:44:06;15.70;99.90
17891;DHT22;9071;48.220;14.480;2023-05-19T19:49:09;15.60;99.90
17891;DHT22;9071;48.220;14.480;2023-05-19T19:54:11;15.40;99.90
17891;DHT22;9071;48.220;14.480;2023-05-19T19:59:14;15.30;99.90
17891;DHT22;9071;48.220;14.480;2023-05-19T20:04:16;15.30;99.90
17891;DHT22;9071;48.220;14.480;2023-05-19T20:09:18;15.40;99.90
17891;DHT22;9071;48.220;14.480;2023-05-19T20:14:21;15.40;99.90
17891;DHT22;9071;48.220;14.480;2023-05-19T20:19:23;15.40;99.90
17891;DHT22;9071;48.220;14.480;2023-05-19T20:24:26;15.50;99.90
17891;DHT22;9071;48.220;14.480;2023-05-19T20:29:32;15.40;99.90
17891;DHT22;9071;48.220;14.480;2023-05-19T20:34:34;15.30;99.90
17891;DHT22;9071;48.220;14.480;2023-05-19T20:39:36;15.40;99.90
17891;DHT22;9071;48.220;14.480;2023-05-19T20:44:39;15.30;99.90
17891;DHT22;9071;48.220;14.480;2023-05-19T20:49:41;15.30;99.90
17891;DHT22;9071;48.220;14.480;2023-05-19T20:54:43;15.20;99.90
17891;DHT22;9071;48.220;14.480;2023-05-19T20:59:47;15.10;99.90
17891;DHT22;9071;48.220;14.480;2023-05-19T21:04:49;15.10;99.90
17891;DHT22;9071;48.220;14.480;2023-05-19T21:09:51;15.00;99.90
17891;DHT22;9071;48.220;14.480;2023-05-19T21:14:55;14.90;99.90
17891;DHT22;9071;48.220;14.480;2023-05-19T21:19:57;14.80;99.90
17891;DHT22;9071;48.220;14.480;2023-05-19T21:25:00;14.70;99.90
17891;DHT22;9071;48.220;14.480;2023-05-19T21:30:04;14.70;99.90
17891;DHT22;9071;48.220;14.480;2023-05-19T21:35:06;14.60;99.90
17891;DHT22;9071;48.220;14.480;2023-05-19T21:40:09;14.60;99.90
17891;DHT22;9071;48.220;14.480;2023-05-19T21:45:13;14.60;99.90
17891;DHT22;9071;48.220;14.480;2023-05-19T21:50:15;14.50;99.90
17891;DHT22;9071;48.220;14.480;2023-05-19T21:55:17;14.50;99.90
17891;DHT22;9071;48.220;14.480;2023-05-19T22:00:21;14.40;99.90
17891;DHT22;9071;48.220;14.480;2023-05-19T22:05:25;14.50;99.90
17891;DHT22;9071;48.220;14.480;2023-05-19T22:10:27;14.40;99.90
17891;DHT22;9071;48.220;14.480;2023-05-19T22:15:30;14.30;99.90
17891;DHT22;9071;48.220;14.480;2023-05-19T22:20:32;14.30;99.90
17891;DHT22;9071;48.220;14.480;2023-05-19T22:25:35;14.20;99.90
17891;DHT22;9071;48.220;14.480;2023-05-19T22:30:38;14.00;99.90
17891;DHT22;9071;48.220;14.480;2023-05-19T22:35:41;13.90;99.90
17891;DHT22;9071;48.220;14.480;2023-05-19T22:40:43;13.80;99.90
17891;DHT22;9071;48.220;14.480;2023-05-19T22:45:47;13.80;99.90
17891;DHT22;9071;48.220;14.480;2023-05-19T22:50:49;13.80;99.90
17891;DHT22;9071;48.220;14.480;2023-05-19T22:55:51;13.80;99.90
17891;DHT22;9071;48.220;14.480;2023-05-19T23:00:54;13.70;99.90
17891;DHT22;9071;48.220;14.480;2023-05-19T23:05:56;13.60;99.90
17891;DHT22;9071;48.220;14.480;2023-05-19T23:10:58;13.50;99.90
17891;DHT22;9071;48.220;14.480;2023-05-19T23:16:03;13.50;99.90
17891;DHT22;9071;48.220;14.480;2023-05-19T23:21:07;13.30;99.90
17891;DHT22;9071;48.220;14.480;2023-05-19T23:26:09;13.20;99.90
17891;DHT22;9071;48.220;14.480;2023-05-19T23:31:14;13.10;99.90
17891;DHT22;9071;48.220;14.480;2023-05-19T23:36:16;13.30;99.90
17891;DHT22;9071;48.220;14.480;2023-05-19T23:41:18;13.30;99.90
17891;DHT22;9071;48.220;14.480;2023-05-19T23:46:22;13.30;99.90
17891;DHT22;9071;48.220;14.480;2023-05-19T23:51:24;13.30;99.90
17891;DHT22;9071;48.220;14.480;2023-05-19T23:56:26;13.30;99.90
